createdAt,value
2017-09-16T00:01:09.246Z,9.37
2017-09-16T00:03:40.287Z,9.37
2017-09-16T00:06:09.703Z,9.39
2017-09-16T00:08:39.774Z,9.36
2017-09-16T00:11:08.978Z,9.36
2017-09-16T00:13:39.794Z,9.23
2017-09-16T00:16:09.371Z,9.21
2017-09-16T00:18:39.716Z,9.19
2017-09-16T00:21:09.394Z,9.08
2017-09-16T00:23:40.040Z,9.19
2017-09-16T00:26:09.414Z,9.17
2017-09-16T00:28:40.259Z,9.16
2017-09-16T00:31:09.627Z,9.11
2017-09-16T00:33:39.633Z,9.14
2017-09-16T00:36:09.206Z,9.10
2017-09-16T00:38:39.682Z,9.05
2017-09-16T00:41:09.122Z,9.03
2017-09-16T00:43:39.706Z,8.98
2017-09-16T00:46:08.862Z,8.94
2017-09-16T00:48:39.780Z,8.98
2017-09-16T00:51:09.631Z,8.96
2017-09-16T00:53:39.290Z,8.96
2017-09-16T00:56:08.692Z,8.93
2017-09-16T00:58:38.616Z,8.90
2017-09-16T01:01:07.863Z,8.88
2017-09-16T01:03:37.290Z,8.89
2017-09-16T01:06:07.274Z,8.86
2017-09-16T01:08:36.491Z,8.90
2017-09-16T01:11:05.888Z,8.90
2017-09-16T01:13:35.883Z,8.91
2017-09-16T01:16:05.494Z,8.91
2017-09-16T01:18:34.927Z,8.91
2017-09-16T01:21:05.590Z,8.93
2017-09-16T01:23:35.150Z,8.90
2017-09-16T01:26:04.798Z,8.89
2017-09-16T01:28:34.833Z,8.90
2017-09-16T01:31:04.263Z,8.87
2017-09-16T01:33:33.846Z,8.87
2017-09-16T01:36:03.479Z,8.91
2017-09-16T01:38:32.807Z,8.85
2017-09-16T01:41:02.374Z,8.78
2017-09-16T01:43:31.818Z,8.47
2017-09-16T01:46:01.570Z,8.22
2017-09-16T01:48:31.355Z,8.35
2017-09-16T01:51:00.818Z,8.15
2017-09-16T01:53:30.770Z,8.16
2017-09-16T01:56:00.208Z,8.19
2017-09-16T01:58:29.719Z,8.25
2017-09-16T02:00:59.410Z,8.09
2017-09-16T02:03:28.948Z,8.21
2017-09-16T02:05:58.314Z,8.15
2017-09-16T02:08:28.102Z,7.79
2017-09-16T02:10:57.658Z,7.82
2017-09-16T02:13:27.069Z,7.70
2017-09-16T02:15:56.992Z,7.64
2017-09-16T02:18:26.435Z,7.83
2017-09-16T02:20:56.027Z,7.86
2017-09-16T02:23:25.867Z,7.49
2017-09-16T02:25:55.449Z,7.56
2017-09-16T02:28:24.889Z,7.57
2017-09-16T02:30:54.700Z,7.24
2017-09-16T02:33:24.099Z,7.23
2017-09-16T02:35:53.676Z,7.56
2017-09-16T02:38:23.548Z,7.57
2017-09-16T02:40:52.854Z,7.69
2017-09-16T02:43:22.030Z,7.70
2017-09-16T02:45:51.790Z,7.50
2017-09-16T02:48:21.254Z,7.39
2017-09-16T02:50:50.523Z,7.60
2017-09-16T02:53:20.307Z,7.62
2017-09-16T02:55:50.023Z,7.61
2017-09-16T02:58:19.439Z,7.64
2017-09-16T03:00:52.395Z,6.79
2017-09-16T03:03:21.979Z,6.74
2017-09-16T03:05:51.602Z,6.79
2017-09-16T03:08:21.635Z,6.85
2017-09-16T03:10:51.418Z,7.02
2017-09-16T03:13:20.774Z,7.19
2017-09-16T03:15:50.647Z,6.97
2017-09-16T03:18:20.167Z,6.79
2017-09-16T03:20:50.047Z,6.86
2017-09-16T03:23:19.498Z,7.10
2017-09-16T03:25:49.815Z,7.28
2017-09-16T03:28:19.428Z,7.38
2017-09-16T03:30:50.622Z,6.91
2017-09-16T03:33:20.190Z,6.54
2017-09-16T03:35:50.298Z,6.46
2017-09-16T03:38:20.123Z,6.49
2017-09-16T03:40:50.115Z,6.89
2017-09-16T03:43:19.515Z,6.87
2017-09-16T03:45:49.993Z,6.79
2017-09-16T03:48:19.406Z,7.07
2017-09-16T03:50:49.496Z,6.93
2017-09-16T03:53:19.699Z,6.90
2017-09-16T03:55:49.605Z,7.05
2017-09-16T03:58:19.015Z,7.15
2017-09-16T04:00:52.085Z,7.18
2017-09-16T04:03:21.885Z,7.25
2017-09-16T04:05:51.519Z,7.33
2017-09-16T04:08:21.282Z,7.40
2017-09-16T04:10:50.755Z,7.45
2017-09-16T04:13:20.491Z,7.01
2017-09-16T04:15:50.468Z,6.89
2017-09-16T04:18:20.097Z,6.88
2017-09-16T04:20:49.616Z,7.17
2017-09-16T04:23:19.530Z,7.25
2017-09-16T04:25:50.383Z,7.30
2017-09-16T04:28:19.975Z,6.71
2017-09-16T04:30:50.382Z,6.79
2017-09-16T04:33:20.348Z,6.66
2017-09-16T04:35:49.915Z,7.03
2017-09-16T04:38:19.856Z,7.18
2017-09-16T04:40:51.118Z,7.20
2017-09-16T04:43:20.699Z,7.27
2017-09-16T04:45:50.862Z,7.30
2017-09-16T04:48:20.311Z,7.29
2017-09-16T04:50:49.859Z,7.33
2017-09-16T04:53:19.373Z,7.34
2017-09-16T04:55:50.494Z,7.36
2017-09-16T04:58:19.911Z,7.44
2017-09-16T05:00:50.271Z,7.48
2017-09-16T05:03:19.770Z,7.46
2017-09-16T05:05:50.251Z,7.51
2017-09-16T05:08:19.859Z,7.51
2017-09-16T05:10:50.762Z,7.52
2017-09-16T05:13:20.130Z,7.44
2017-09-16T05:15:49.916Z,7.42
2017-09-16T05:18:19.747Z,7.47
2017-09-16T05:20:50.178Z,7.49
2017-09-16T05:23:19.683Z,7.59
2017-09-16T05:25:49.794Z,7.62
2017-09-16T05:28:19.300Z,7.66
2017-09-16T05:30:50.475Z,7.73
2017-09-16T05:33:20.327Z,7.72
2017-09-16T05:35:50.035Z,7.78
2017-09-16T05:38:19.851Z,7.81
2017-09-16T05:40:50.442Z,7.86
2017-09-16T05:43:19.955Z,7.93
2017-09-16T05:45:51.019Z,7.98
2017-09-16T05:48:20.682Z,7.99
2017-09-16T05:50:50.163Z,8.02
2017-09-16T05:53:32.518Z,8.05
2017-09-16T05:56:02.394Z,8.11
2017-09-16T05:58:31.887Z,8.17
2017-09-16T06:01:01.516Z,8.21
2017-09-16T06:03:31.142Z,8.26
2017-09-16T06:06:00.774Z,8.37
2017-09-16T06:08:29.952Z,8.42
2017-09-16T06:10:59.745Z,8.49
2017-09-16T06:13:28.907Z,8.62
2017-09-16T06:15:58.372Z,8.77
2017-09-16T06:18:27.800Z,8.84
2017-09-16T06:20:57.088Z,8.94
2017-09-16T06:23:29.823Z,9.02
2017-09-16T06:25:59.879Z,9.11
2017-09-16T06:28:29.414Z,9.22
2017-09-16T06:30:58.605Z,9.33
2017-09-16T06:33:28.315Z,9.33
2017-09-16T06:35:58.373Z,9.47
2017-09-16T06:38:28.283Z,9.76
2017-09-16T06:40:57.943Z,9.74
2017-09-16T06:43:27.119Z,9.80
2017-09-16T06:45:56.463Z,9.90
2017-09-16T06:48:26.107Z,9.90
2017-09-16T06:50:55.325Z,10.00
2017-09-16T06:53:24.524Z,10.12
2017-09-16T06:55:53.972Z,10.26
2017-09-16T06:58:23.213Z,10.27
2017-09-16T07:00:52.427Z,10.30
2017-09-16T07:03:22.053Z,10.30
2017-09-16T07:05:51.661Z,10.44
2017-09-16T07:08:20.927Z,10.57
2017-09-16T07:10:50.480Z,10.80
2017-09-16T07:13:20.258Z,10.80
2017-09-16T07:15:50.247Z,11.05
2017-09-16T07:18:20.078Z,10.94
2017-09-16T07:20:50.538Z,11.30
2017-09-16T07:23:19.891Z,11.61
2017-09-16T07:25:49.820Z,11.89
2017-09-16T07:28:19.197Z,11.56
2017-09-16T07:30:48.386Z,12.06
2017-09-16T07:33:18.741Z,12.04
2017-09-16T07:35:49.058Z,12.12
2017-09-16T07:38:19.369Z,12.21
2017-09-16T07:40:50.058Z,12.00
2017-09-16T07:43:19.491Z,11.83
2017-09-16T07:45:49.913Z,11.81
2017-09-16T07:48:19.543Z,12.60
2017-09-16T07:50:50.154Z,12.50
2017-09-16T07:53:19.488Z,12.52
2017-09-16T07:55:50.439Z,12.89
2017-09-16T07:58:19.852Z,12.61
2017-09-16T08:00:50.027Z,13.23
2017-09-16T08:03:20.275Z,13.08
2017-09-16T08:05:51.084Z,13.49
2017-09-16T08:08:20.411Z,13.58
2017-09-16T08:10:50.945Z,14.02
2017-09-16T08:13:20.282Z,14.45
2017-09-16T08:15:51.040Z,14.32
2017-09-16T08:18:20.731Z,13.95
2017-09-16T08:20:50.152Z,14.42
2017-09-16T08:23:21.341Z,14.25
2017-09-16T08:26:02.743Z,14.33
2017-09-16T08:28:32.024Z,14.52
2017-09-16T08:31:01.780Z,15.05
2017-09-16T08:33:31.944Z,15.31
2017-09-16T08:36:01.160Z,15.53
2017-09-16T08:38:31.223Z,15.43
2017-09-16T08:41:00.471Z,15.70
2017-09-16T08:43:29.771Z,16.01
2017-09-16T08:45:59.279Z,14.29
2017-09-16T08:48:28.610Z,13.87
2017-09-16T08:50:57.945Z,14.02
2017-09-16T08:53:28.136Z,14.01
2017-09-16T08:55:57.511Z,13.99
2017-09-16T08:58:26.726Z,14.37
2017-09-16T09:00:56.639Z,14.79
2017-09-16T09:03:25.851Z,15.06
2017-09-16T09:05:55.014Z,14.51
2017-09-16T09:08:24.847Z,15.15
2017-09-16T09:10:54.121Z,15.78
2017-09-16T09:13:23.374Z,15.39
2017-09-16T09:15:52.982Z,15.27
2017-09-16T09:18:22.171Z,15.02
2017-09-16T09:20:51.628Z,14.43
2017-09-16T09:23:21.095Z,14.95
2017-09-16T09:25:50.537Z,15.68
2017-09-16T09:28:19.808Z,16.24
2017-09-16T09:30:50.108Z,15.93
2017-09-16T09:33:19.415Z,15.50
2017-09-16T09:35:50.319Z,15.68
2017-09-16T09:38:20.751Z,16.70
2017-09-16T09:40:50.499Z,16.17
2017-09-16T09:43:19.899Z,16.51
2017-09-16T09:45:50.876Z,16.53
2017-09-16T09:48:20.523Z,17.31
2017-09-16T09:50:49.779Z,17.17
2017-09-16T09:53:19.358Z,17.35
2017-09-16T09:55:50.265Z,15.96
2017-09-16T09:58:19.571Z,17.04
2017-09-16T10:00:50.852Z,16.40
2017-09-16T10:03:20.128Z,17.56
2017-09-16T10:05:50.402Z,16.25
2017-09-16T10:08:20.211Z,17.01
2017-09-16T10:10:49.459Z,17.56
2017-09-16T10:13:19.179Z,18.21
2017-09-16T10:15:56.684Z,18.14
2017-09-16T10:18:25.948Z,18.62
2017-09-16T10:20:55.337Z,18.24
2017-09-16T10:23:25.335Z,17.96
2017-09-16T10:25:54.779Z,17.72
2017-09-16T10:28:24.051Z,17.96
2017-09-16T10:30:53.774Z,17.71
2017-09-16T10:33:23.116Z,17.50
2017-09-16T10:35:52.429Z,17.35
2017-09-16T10:38:22.116Z,17.14
2017-09-16T10:40:51.436Z,17.41
2017-09-16T10:43:20.787Z,17.21
2017-09-16T10:45:50.615Z,17.31
2017-09-16T10:48:23.175Z,17.99
2017-09-16T10:50:52.874Z,18.34
2017-09-16T10:53:22.174Z,17.33
2017-09-16T10:55:51.815Z,18.64
2017-09-16T10:58:21.271Z,19.34
2017-09-16T11:00:50.607Z,17.66
2017-09-16T11:03:19.795Z,17.16
2017-09-16T11:05:50.659Z,16.22
2017-09-16T11:08:19.896Z,16.54
2017-09-16T11:10:50.540Z,15.91
2017-09-16T11:13:20.144Z,15.74
2017-09-16T11:15:50.683Z,15.75
2017-09-16T11:18:19.950Z,16.01
2017-09-16T11:20:51.043Z,15.84
2017-09-16T11:23:20.256Z,16.25
2017-09-16T11:25:50.747Z,16.04
2017-09-16T11:28:20.698Z,16.40
2017-09-16T11:30:51.003Z,16.53
2017-09-16T11:33:20.226Z,16.87
2017-09-16T11:35:51.469Z,16.76
2017-09-16T11:38:20.733Z,16.47
2017-09-16T11:40:50.127Z,16.06
2017-09-16T11:43:19.924Z,16.48
2017-09-16T11:45:50.367Z,15.99
2017-09-16T11:48:19.666Z,15.73
2017-09-16T11:50:49.194Z,17.21
2017-09-16T11:53:18.466Z,16.40
2017-09-16T11:55:50.002Z,16.97
2017-09-16T11:58:19.842Z,17.02
2017-09-16T12:00:50.107Z,15.95
2017-09-16T12:03:19.549Z,15.71
2017-09-16T12:05:51.083Z,15.30
2017-09-16T12:08:20.695Z,15.42
2017-09-16T12:10:50.578Z,15.37
2017-09-16T12:13:20.157Z,15.42
2017-09-16T12:15:50.465Z,15.63
2017-09-16T12:18:19.752Z,15.95
2017-09-16T12:20:52.556Z,16.84
2017-09-16T12:23:22.160Z,17.27
2017-09-16T12:25:51.543Z,17.02
2017-09-16T12:28:21.139Z,16.68
2017-09-16T12:30:50.770Z,16.99
2017-09-16T12:33:20.063Z,16.08
2017-09-16T12:35:50.799Z,15.87
2017-09-16T12:38:20.108Z,15.63
2017-09-16T12:40:50.455Z,15.72
2017-09-16T12:43:20.675Z,16.04
2017-09-16T12:45:55.038Z,16.97
2017-09-16T12:48:25.153Z,17.17
2017-09-16T12:50:56.516Z,16.70
2017-09-16T12:53:25.867Z,16.39
2017-09-16T12:55:55.473Z,16.14
2017-09-16T12:58:24.717Z,15.90
2017-09-16T13:00:53.997Z,15.89
2017-09-16T13:03:23.671Z,15.49
2017-09-16T13:05:54.997Z,15.49
2017-09-16T13:08:24.744Z,15.67
2017-09-16T13:10:54.331Z,15.49
2017-09-16T13:13:23.855Z,15.43
2017-09-16T13:15:53.250Z,15.32
2017-09-16T13:18:22.836Z,15.33
2017-09-16T13:20:52.039Z,15.31
2017-09-16T13:23:21.339Z,15.39
2017-09-16T13:25:50.831Z,15.74
2017-09-16T13:28:20.123Z,15.61
2017-09-16T13:30:50.284Z,15.40
2017-09-16T13:33:19.898Z,15.39
2017-09-16T13:35:50.284Z,15.36
2017-09-16T13:38:19.604Z,15.39
2017-09-16T13:40:50.918Z,15.58
2017-09-16T13:43:20.135Z,15.93
2017-09-16T13:45:50.445Z,16.29
2017-09-16T13:51:51.408Z,16.16
2017-09-16T13:54:21.048Z,15.82
2017-09-16T13:56:50.676Z,15.54
2017-09-16T13:59:21.435Z,15.89
2017-09-16T14:01:51.279Z,15.73
2017-09-16T14:04:20.512Z,15.94
2017-09-16T14:06:50.303Z,16.09
2017-09-16T14:09:19.945Z,16.10
2017-09-16T14:11:50.332Z,16.01
2017-09-16T14:14:19.535Z,15.93
2017-09-16T14:16:49.029Z,16.02
2017-09-16T14:19:18.360Z,16.02
2017-09-16T14:21:47.532Z,16.06
2017-09-16T14:24:17.418Z,16.00
2017-09-16T14:26:57.059Z,15.63
2017-09-16T14:29:26.858Z,15.94
2017-09-16T14:31:56.055Z,15.77
2017-09-16T14:34:25.343Z,16.13
2017-09-16T14:36:55.039Z,16.22
2017-09-16T14:39:24.375Z,16.43
2017-09-16T14:41:53.540Z,16.54
2017-09-16T14:44:22.995Z,16.62
2017-09-16T14:46:52.287Z,16.57
2017-09-16T14:49:21.471Z,16.25
2017-09-16T14:51:50.997Z,16.00
2017-09-16T14:54:20.287Z,16.13
2017-09-16T14:56:51.146Z,16.28
2017-09-16T14:59:20.742Z,15.99
2017-09-16T15:01:50.427Z,15.91
2017-09-16T15:04:19.813Z,15.94
2017-09-16T15:06:52.187Z,16.21
2017-09-16T15:09:21.619Z,15.92
2017-09-16T15:11:51.102Z,16.04
2017-09-16T15:14:20.639Z,16.12
2017-09-16T15:16:50.452Z,16.23
2017-09-16T15:19:19.779Z,16.46
2017-09-16T15:21:49.270Z,16.54
2017-09-16T15:24:18.571Z,16.64
2017-09-16T15:26:47.834Z,16.60
2017-09-16T15:29:17.531Z,16.55
2017-09-16T15:31:48.483Z,16.55
2017-09-16T15:34:17.851Z,16.25
2017-09-16T15:36:48.819Z,16.15
2017-09-16T15:39:18.331Z,16.22
2017-09-16T15:41:50.990Z,16.03
2017-09-16T15:44:20.719Z,15.80
2017-09-16T15:46:51.724Z,15.78
2017-09-16T15:49:21.281Z,15.65
2017-09-16T15:51:50.719Z,15.74
2017-09-16T15:54:19.912Z,15.62
2017-09-16T15:56:50.872Z,15.40
2017-09-16T15:59:20.135Z,15.43
2017-09-16T16:01:50.915Z,15.47
2017-09-16T16:04:20.531Z,15.37
2017-09-16T16:06:50.451Z,15.26
2017-09-16T16:09:19.679Z,15.22
2017-09-16T16:11:49.144Z,15.03
2017-09-16T16:14:18.438Z,15.11
2017-09-16T16:16:47.620Z,15.04
2017-09-16T16:21:50.692Z,15.01
2017-09-16T16:24:19.974Z,14.91
2017-09-16T16:26:50.878Z,14.88
2017-09-16T16:29:20.362Z,14.81
2017-09-16T16:31:50.541Z,14.86
2017-09-16T16:34:20.243Z,14.83
2017-09-16T16:36:50.187Z,14.88
2017-09-16T16:39:19.556Z,14.82
2017-09-16T16:41:49.015Z,14.71
2017-09-16T16:44:18.435Z,14.83
2017-09-16T16:46:49.404Z,14.88
2017-09-16T16:49:19.148Z,14.85
2017-09-16T16:51:50.027Z,14.66
2017-09-16T16:54:19.303Z,14.59
2017-09-16T16:56:51.047Z,14.63
2017-09-16T16:59:20.344Z,14.71
2017-09-16T17:01:50.323Z,14.71
2017-09-16T17:04:19.871Z,14.78
2017-09-16T17:06:50.375Z,14.76
2017-09-16T17:09:19.624Z,14.59
2017-09-16T17:11:50.547Z,14.47
2017-09-16T17:14:19.839Z,14.20
2017-09-16T17:16:51.344Z,13.96
2017-09-16T17:19:21.227Z,13.98
2017-09-16T17:21:50.459Z,13.96
2017-09-16T17:24:19.728Z,14.05
2017-09-16T17:26:49.239Z,14.11
2017-09-16T17:29:18.666Z,14.12
2017-09-16T17:31:55.961Z,14.03
2017-09-16T17:34:25.288Z,14.04
2017-09-16T17:36:54.439Z,13.93
2017-09-16T17:39:23.903Z,13.85
2017-09-16T17:41:53.217Z,13.85
2017-09-16T17:44:22.635Z,13.82
2017-09-16T17:46:52.179Z,13.70
2017-09-16T17:49:21.347Z,13.65
2017-09-16T17:51:50.907Z,13.56
2017-09-16T17:54:20.524Z,13.52
2017-09-16T17:56:50.576Z,13.39
2017-09-16T17:59:19.886Z,13.34
2017-09-16T18:01:50.977Z,13.33
2017-09-16T18:04:20.363Z,13.17
2017-09-16T18:06:50.178Z,13.06
2017-09-16T18:09:19.908Z,13.03
2017-09-16T18:11:50.831Z,12.99
2017-09-16T18:14:20.095Z,12.90
2017-09-16T18:16:51.399Z,12.81
2017-09-16T18:19:20.720Z,12.79
2017-09-16T18:21:49.934Z,12.74
2017-09-16T18:24:19.751Z,12.73
2017-09-16T18:26:48.905Z,12.52
2017-09-16T18:29:18.155Z,12.63
2017-09-16T18:31:49.615Z,12.52
2017-09-16T18:34:19.195Z,12.52
2017-09-16T18:36:49.829Z,12.48
2017-09-16T18:39:19.520Z,12.40
2017-09-16T18:41:50.639Z,12.36
2017-09-16T18:44:19.820Z,12.27
2017-09-16T18:46:51.514Z,12.28
2017-09-16T18:49:20.858Z,12.22
2017-09-16T18:51:50.126Z,11.94
2017-09-16T18:54:19.822Z,12.12
2017-09-16T18:56:50.416Z,12.13
2017-09-16T18:59:19.755Z,11.98
2017-09-16T19:01:50.984Z,12.04
2017-09-16T19:04:20.303Z,12.01
2017-09-16T19:06:50.743Z,12.00
2017-09-16T19:09:20.366Z,11.99
2017-09-16T19:11:50.752Z,11.90
2017-09-16T19:14:20.091Z,11.92
2017-09-16T19:16:50.765Z,11.85
2017-09-16T19:19:20.068Z,11.81
2017-09-16T19:21:51.047Z,11.81
2017-09-16T19:24:20.700Z,11.69
2017-09-16T19:26:51.984Z,11.68
2017-09-16T19:29:21.529Z,11.36
2017-09-16T19:31:51.635Z,11.52
2017-09-16T19:34:20.963Z,11.39
2017-09-16T19:36:50.704Z,11.38
2017-09-16T19:39:20.534Z,11.43
2017-09-16T19:41:50.655Z,11.40
2017-09-16T19:44:20.255Z,11.39
2017-09-16T19:46:51.156Z,11.42
2017-09-16T19:49:20.495Z,11.42
2017-09-16T19:51:49.699Z,11.35
2017-09-16T19:54:19.531Z,11.33
2017-09-16T19:56:50.721Z,11.30
2017-09-16T19:59:20.113Z,11.09
2017-09-16T20:01:51.091Z,11.19
2017-09-16T20:04:20.403Z,11.10
2017-09-16T20:06:50.564Z,11.08
2017-09-16T20:09:20.175Z,11.01
2017-09-16T20:11:49.419Z,10.91
2017-09-16T20:14:18.734Z,10.84
2017-09-16T20:16:51.682Z,10.89
2017-09-16T20:19:21.017Z,10.98
2017-09-16T20:21:51.536Z,11.02
2017-09-16T20:24:21.191Z,10.97
2017-09-16T20:26:50.663Z,10.96
2017-09-16T20:29:20.015Z,10.88
2017-09-16T20:31:50.891Z,10.80
2017-09-16T20:34:20.153Z,10.68
2017-09-16T20:36:50.953Z,10.75
2017-09-16T20:39:20.599Z,10.74
2017-09-16T20:41:50.188Z,10.62
2017-09-16T20:44:19.657Z,10.65
2017-09-16T20:46:52.399Z,10.74
2017-09-16T20:49:21.682Z,10.78
2017-09-16T20:51:51.000Z,10.73
2017-09-16T20:54:24.951Z,10.78
2017-09-16T20:56:54.431Z,10.72
2017-09-16T20:59:27.839Z,10.57
2017-09-16T21:01:57.071Z,10.56
2017-09-16T21:04:26.343Z,10.27
2017-09-16T21:06:56.304Z,10.26
2017-09-16T21:09:25.720Z,10.38
2017-09-16T21:11:54.928Z,10.45
2017-09-16T21:14:25.222Z,10.28
2017-09-16T21:16:54.483Z,10.34
2017-09-16T21:19:24.027Z,10.38
2017-09-16T21:21:53.774Z,10.41
2017-09-16T21:24:23.611Z,10.46
2017-09-16T21:26:52.836Z,10.39
2017-09-16T21:29:22.821Z,10.45
2017-09-16T21:31:52.061Z,10.44
2017-09-16T21:34:21.324Z,10.47
2017-09-16T21:36:50.899Z,10.45
2017-09-16T21:39:20.224Z,10.38
2017-09-16T21:41:51.634Z,10.37
2017-09-16T21:44:21.210Z,10.35
2017-09-16T21:46:50.825Z,10.31
2017-09-16T21:49:20.608Z,10.24
2017-09-16T21:51:51.144Z,10.21
2017-09-16T21:54:20.351Z,10.02
2017-09-16T21:56:49.836Z,9.79
2017-09-16T21:59:19.527Z,9.92
2017-09-16T22:01:51.599Z,9.94
2017-09-16T22:04:23.134Z,9.90
2017-09-16T22:06:54.359Z,9.78
2017-09-16T22:09:23.587Z,9.83
2017-09-16T22:11:55.643Z,9.86
2017-09-16T22:14:25.530Z,9.88
2017-09-16T22:16:55.122Z,9.88
2017-09-16T22:19:24.316Z,9.80
2017-09-16T22:21:53.867Z,9.75
2017-09-16T22:24:23.043Z,9.48
2017-09-16T22:26:52.299Z,9.41
2017-09-16T22:29:21.932Z,9.27
2017-09-16T22:31:55.600Z,9.07
2017-09-16T22:34:24.804Z,9.33
2017-09-16T22:36:54.447Z,9.43
2017-09-16T22:39:23.675Z,9.48
2017-09-16T22:41:53.335Z,9.50
2017-09-16T22:44:22.775Z,9.51
2017-09-16T22:46:51.963Z,9.50
2017-09-16T22:49:21.274Z,9.40
2017-09-16T22:51:50.931Z,9.47
2017-09-16T22:54:20.367Z,9.35
2017-09-16T22:56:51.135Z,9.18
2017-09-16T22:59:20.924Z,9.16
2017-09-16T23:01:51.883Z,9.03
2017-09-16T23:04:21.391Z,9.16
2017-09-16T23:06:51.629Z,9.19
2017-09-16T23:09:20.892Z,9.20
2017-09-16T23:11:50.588Z,9.22
2017-09-16T23:14:20.196Z,9.23
2017-09-16T23:16:51.430Z,9.23
2017-09-16T23:19:20.910Z,9.19
2017-09-16T23:21:50.980Z,8.77
2017-09-16T23:24:20.676Z,8.28
2017-09-16T23:26:51.611Z,8.09
2017-09-16T23:29:21.242Z,7.74
2017-09-16T23:31:51.007Z,8.01
2017-09-16T23:34:20.899Z,8.44
2017-09-16T23:36:50.384Z,7.82
2017-09-16T23:39:19.924Z,7.95
2017-09-16T23:41:50.981Z,8.37
2017-09-16T23:44:20.636Z,7.98
2017-09-16T23:46:49.923Z,8.00
2017-09-16T23:49:19.366Z,7.63
2017-09-16T23:51:51.189Z,7.75
2017-09-16T23:54:20.442Z,8.09
2017-09-16T23:56:51.263Z,8.21
2017-09-16T23:59:21.196Z,8.17
